Time;durP1;ratioP1;P1;durP2;ratioP2;P2;SDS_P1;SDS_P2;PMS_P1;PMS_P2;Temp;Humidity;BMP_temperature;BMP_pressure;BME280_temperature;BME280_humidity;BME280_pressure;Samples;Min_cycle;Max_cycle;Signal;HPM_P1;HPM_P2
2023/09/13 00:02:09;;;;;;;24.10;19.77;;;17.40;99.90;;;;;;5014798;28;20054;-84
2023/09/13 00:04:35;;;;;;;21.70;18.95;;;17.40;99.90;;;;;;5009804;28;20037;-84
2023/09/13 00:07:01;;;;;;;25.42;19.42;;;17.40;99.90;;;;;;4998571;28;20105;-85
2023/09/13 00:09:26;;;;;;;23.38;18.40;;;17.40;99.90;;;;;;5013690;28;20113;-84
2023/09/13 00:11:52;;;;;;;26.75;20.20;;;17.40;99.90;;;;;;5007257;28;20560;-84
2023/09/13 00:14:18;;;;;;;23.38;19.17;;;17.40;99.90;;;;;;5003706;28;20036;-83
2023/09/13 00:16:43;;;;;;;25.90;19.80;;;17.40;99.90;;;;;;5010507;28;20084;-83
2023/09/13 00:19:09;;;;;;;22.55;19.42;;;17.40;99.90;;;;;;5004889;28;20037;-83
2023/09/13 00:21:40;;;;;;;27.27;22.08;;;17.40;99.90;;;;;;5008520;28;20025;-84
2023/09/13 00:24:11;;;;;;;27.48;21.70;;;17.40;99.90;;;;;;4997671;28;20076;-84
2023/09/13 00:26:37;;;;;;;23.25;18.63;;;17.50;99.90;;;;;;5010265;28;20386;-83
2023/09/13 00:29:02;;;;;;;24.23;18.98;;;17.40;99.90;;;;;;5004003;28;20014;-84
2023/09/13 00:31:28;;;;;;;21.27;16.95;;;17.50;99.90;;;;;;5018442;28;20592;-84
2023/09/13 00:33:53;;;;;;;21.02;17.60;;;17.40;99.90;;;;;;5017533;28;20034;-85
2023/09/13 00:36:19;;;;;;;20.70;16.98;;;17.40;99.90;;;;;;5014216;28;20018;-84
2023/09/13 00:38:45;;;;;;;24.95;18.88;;;17.50;99.90;;;;;;5018520;28;20033;-83
2023/09/13 00:41:10;;;;;;;22.33;17.67;;;17.50;99.90;;;;;;4997895;28;20109;-83
2023/09/13 00:43:36;;;;;;;22.80;18.33;;;17.50;99.90;;;;;;5014144;28;20057;-85
2023/09/13 00:46:03;;;;;;;21.65;17.65;;;17.50;99.90;;;;;;5013885;28;20521;-84
2023/09/13 00:48:29;;;;;;;21.05;17.35;;;17.50;99.90;;;;;;5000573;28;20029;-83
2023/09/13 00:50:56;;;;;;;22.42;17.75;;;17.50;99.90;;;;;;5013623;28;20028;-83
2023/09/13 00:53:23;;;;;;;21.08;17.52;;;17.50;99.90;;;;;;5001828;28;20402;-84
2023/09/13 00:55:51;;;;;;;23.30;19.58;;;17.50;99.90;;;;;;5002017;28;20661;-85
2023/09/13 00:58:18;;;;;;;24.35;18.83;;;17.50;99.90;;;;;;5001087;28;20016;-83
2023/09/13 01:00:43;;;;;;;23.38;17.65;;;17.50;99.90;;;;;;5012199;28;20022;-84
2023/09/13 01:03:09;;;;;;;21.13;17.77;;;17.50;99.90;;;;;;5005861;28;20409;-85
2023/09/13 01:05:35;;;;;;;20.55;16.85;;;17.50;99.90;;;;;;5012193;28;20481;-83
2023/09/13 01:08:02;;;;;;;23.33;18.33;;;17.50;99.90;;;;;;5006154;28;20041;-83
2023/09/13 01:10:27;;;;;;;22.08;16.58;;;17.50;99.90;;;;;;5005541;28;20587;-84
2023/09/13 01:12:53;;;;;;;20.05;16.17;;;17.50;99.90;;;;;;5023579;28;20030;-83
2023/09/13 01:15:19;;;;;;;21.50;17.17;;;17.50;99.90;;;;;;5005054;28;20453;-84
2023/09/13 01:18:08;;;;;;;21.23;15.77;;;17.50;99.90;;;;;;5006660;28;20049;-83
2023/09/13 01:21:05;;;;;;;22.23;17.10;;;17.50;99.90;;;;;;5007348;28;20033;-86
2023/09/13 01:23:59;;;;;;;25.08;17.75;;;17.50;99.90;;;;;;5005581;28;20025;-83
2023/09/13 01:26:55;;;;;;;23.13;17.63;;;17.50;99.90;;;;;;4997915;28;20037;-84
2023/09/13 01:29:23;;;;;;;25.40;18.17;;;17.50;99.90;;;;;;5008520;28;20023;-83
2023/09/13 01:31:50;;;;;;;19.98;16.17;;;17.40;99.90;;;;;;5006979;28;20077;-83
2023/09/13 01:34:15;;;;;;;26.83;19.25;;;17.50;99.90;;;;;;5004561;28;20033;-86
2023/09/13 01:36:41;;;;;;;21.67;15.18;;;17.50;99.90;;;;;;5015810;28;20120;-82
2023/09/13 01:39:07;;;;;;;25.90;18.35;;;17.50;99.90;;;;;;5008982;28;20029;-82
2023/09/13 01:41:39;;;;;;;28.83;19.10;;;17.50;99.90;;;;;;5013664;28;20073;-85
2023/09/13 01:44:07;;;;;;;24.30;18.13;;;17.50;99.90;;;;;;5000814;28;20019;-83
2023/09/13 01:46:37;;;;;;;26.27;18.77;;;17.50;99.90;;;;;;5017590;28;20041;-85
2023/09/13 01:49:04;;;;;;;26.05;18.60;;;17.60;99.90;;;;;;5016283;28;20473;-84
2023/09/13 01:51:31;;;;;;;22.92;18.10;;;17.50;99.90;;;;;;5014482;28;20025;-85
2023/09/13 01:53:56;;;;;;;28.02;19.30;;;17.50;99.90;;;;;;5018739;28;20382;-85
2023/09/13 01:56:22;;;;;;;26.00;18.33;;;17.60;99.90;;;;;;5009715;28;20025;-83
2023/09/13 01:58:49;;;;;;;30.95;21.40;;;17.50;99.90;;;;;;5022186;28;20034;-82
2023/09/13 02:01:15;;;;;;;26.83;18.98;;;17.60;99.90;;;;;;5029559;28;20018;-84
2023/09/13 02:03:41;;;;;;;26.50;18.98;;;17.60;99.90;;;;;;5032525;28;20101;-83
2023/09/13 02:06:07;;;;;;;26.02;19.23;;;17.60;99.90;;;;;;5001447;28;20060;-83
2023/09/13 02:08:33;;;;;;;24.90;18.05;;;17.60;99.90;;;;;;5000081;28;20483;-84
2023/09/13 02:10:59;;;;;;;28.30;19.27;;;17.60;99.90;;;;;;5007048;28;20399;-83
2023/09/13 02:13:24;;;;;;;29.92;20.10;;;17.60;99.90;;;;;;5016349;28;20033;-83
2023/09/13 02:15:50;;;;;;;27.85;19.75;;;17.60;99.90;;;;;;5004050;28;20117;-82
2023/09/13 02:18:15;;;;;;;26.70;20.02;;;17.60;99.90;;;;;;5008153;28;20046;-85
2023/09/13 02:20:41;;;;;;;27.90;19.75;;;17.60;99.90;;;;;;5013636;28;20117;-81
2023/09/13 02:23:06;;;;;;;31.10;19.05;;;17.60;99.90;;;;;;5003540;28;20117;-83
2023/09/13 02:25:40;;;;;;;26.20;18.67;;;17.60;99.90;;;;;;5006918;28;20519;-82
2023/09/13 02:28:06;;;;;;;26.77;18.83;;;17.60;99.90;;;;;;5004930;28;20029;-81
2023/09/13 02:30:34;;;;;;;25.38;19.10;;;17.60;99.90;;;;;;5012157;28;20029;-81
2023/09/13 02:32:59;;;;;;;23.13;17.20;;;17.60;99.90;;;;;;5005177;28;20024;-81
2023/09/13 02:35:25;;;;;;;21.00;15.75;;;17.60;99.90;;;;;;4997560;28;20030;-82
2023/09/13 02:37:51;;;;;;;22.17;16.48;;;17.60;99.90;;;;;;5004346;28;20026;-81
2023/09/13 02:40:17;;;;;;;20.27;15.70;;;17.60;99.90;;;;;;5008410;28;20172;-84
2023/09/13 02:42:43;;;;;;;19.48;15.65;;;17.60;99.90;;;;;;5003124;28;20080;-82
2023/09/13 02:45:09;;;;;;;21.95;16.00;;;17.60;99.90;;;;;;5000266;28;20029;-82
2023/09/13 02:47:34;;;;;;;22.50;14.05;;;17.60;99.90;;;;;;5011033;28;20046;-82
2023/09/13 02:50:00;;;;;;;19.70;14.23;;;17.60;99.90;;;;;;5002127;28;20579;-82
2023/09/13 02:52:33;;;;;;;20.40;14.50;;;17.50;99.90;;;;;;4999382;28;20029;-83
2023/09/13 02:55:00;;;;;;;21.50;15.80;;;17.50;99.90;;;;;;5000618;28;20027;-81
2023/09/13 02:57:26;;;;;;;19.77;13.55;;;17.50;99.90;;;;;;5007252;28;20023;-82
2023/09/13 02:59:51;;;;;;;15.48;13.18;;;17.50;99.90;;;;;;4996834;28;20073;-84
2023/09/13 03:02:17;;;;;;;20.35;13.25;;;17.50;99.90;;;;;;5006599;28;20033;-83
2023/09/13 03:04:44;;;;;;;19.50;12.93;;;17.50;99.90;;;;;;5011843;28;20046;-83
2023/09/13 03:07:10;;;;;;;15.55;11.90;;;17.50;99.90;;;;;;5007337;28;20127;-86
2023/09/13 03:09:35;;;;;;;15.57;11.73;;;17.50;99.90;;;;;;5002125;28;20114;-85
2023/09/13 03:12:01;;;;;;;14.90;10.70;;;17.40;99.90;;;;;;4993352;28;20502;-85
2023/09/13 03:14:30;;;;;;;18.42;10.60;;;17.40;99.90;;;;;;5004379;28;20030;-84
2023/09/13 03:16:56;;;;;;;12.32;9.40;;;17.40;99.90;;;;;;5013972;28;20017;-86
2023/09/13 03:19:21;;;;;;;16.88;10.13;;;17.40;99.90;;;;;;5002149;28;20509;-84
2023/09/13 03:21:47;;;;;;;13.15;9.90;;;17.40;99.90;;;;;;5008162;28;20027;-83
2023/09/13 03:24:13;;;;;;;10.57;8.15;;;17.30;99.90;;;;;;5001631;28;20015;-84
2023/09/13 03:26:38;;;;;;;12.35;8.50;;;17.30;99.90;;;;;;5007755;28;20048;-85
2023/09/13 03:29:04;;;;;;;11.35;8.15;;;17.30;99.90;;;;;;5002440;28;20025;-85
2023/09/13 03:31:31;;;;;;;13.55;8.35;;;17.30;99.90;;;;;;5012704;28;20104;-84
2023/09/13 03:33:57;;;;;;;13.13;8.90;;;17.30;99.90;;;;;;4998404;28;20130;-85
2023/09/13 03:36:25;;;;;;;10.73;8.77;;;17.20;99.90;;;;;;4994478;28;20082;-84
2023/09/13 03:38:50;;;;;;;9.15;7.68;;;17.20;99.90;;;;;;4999462;28;20018;-84
2023/09/13 03:41:21;;;;;;;12.20;9.05;;;17.20;99.90;;;;;;4999955;28;20108;-84
2023/09/13 03:43:47;;;;;;;12.10;8.45;;;17.20;99.90;;;;;;5007374;28;20029;-84
2023/09/13 03:46:12;;;;;;;8.45;7.22;;;17.10;99.90;;;;;;4997568;28;20025;-85
2023/09/13 03:48:39;;;;;;;11.65;8.70;;;17.10;99.90;;;;;;5009511;28;20027;-86
2023/09/13 03:51:05;;;;;;;12.00;8.48;;;17.10;99.90;;;;;;5000259;28;20116;-85
2023/09/13 03:53:31;;;;;;;10.23;7.82;;;17.10;99.90;;;;;;5015549;28;20033;-87
2023/09/13 03:55:57;;;;;;;7.82;6.50;;;17.00;99.90;;;;;;5005757;28;20553;-84
2023/09/13 03:58:22;;;;;;;8.70;5.75;;;17.00;99.90;;;;;;5003159;28;20030;-85
2023/09/13 04:00:48;;;;;;;6.57;5.65;;;16.90;99.90;;;;;;5014097;28;20034;-84
2023/09/13 04:03:15;;;;;;;7.65;5.97;;;16.90;99.90;;;;;;5002420;28;20026;-87
2023/09/13 04:05:41;;;;;;;5.47;4.65;;;16.90;99.90;;;;;;4996483;28;20101;-84
2023/09/13 04:08:06;;;;;;;5.68;4.63;;;16.90;99.90;;;;;;4996758;28;20122;-84
2023/09/13 04:10:32;;;;;;;5.18;4.63;;;16.90;99.90;;;;;;5005336;28;20035;-84
2023/09/13 04:12:57;;;;;;;8.32;5.18;;;16.80;99.90;;;;;;5019347;28;20031;-83
2023/09/13 04:15:23;;;;;;;5.95;4.55;;;16.80;99.90;;;;;;5002895;28;20033;-84
2023/09/13 04:17:49;;;;;;;5.22;3.97;;;16.70;99.90;;;;;;5004726;28;20030;-85
2023/09/13 04:20:14;;;;;;;4.40;4.00;;;16.70;99.90;;;;;;5012843;28;20030;-83
2023/09/13 04:22:40;;;;;;;6.35;3.45;;;16.70;99.90;;;;;;5007310;28;20589;-84
2023/09/13 04:25:07;;;;;;;4.65;3.40;;;16.60;99.90;;;;;;5006752;28;20049;-84
2023/09/13 04:27:32;;;;;;;4.70;3.55;;;16.60;99.90;;;;;;4998866;28;20041;-85
2023/09/13 04:29:58;;;;;;;6.45;3.28;;;16.60;99.90;;;;;;5001650;28;20027;-83
2023/09/13 04:32:24;;;;;;;3.60;3.05;;;16.50;99.90;;;;;;4994188;28;20022;-85
2023/09/13 04:34:54;;;;;;;2.65;2.35;;;16.50;99.90;;;;;;5006174;28;20029;-84
2023/09/13 04:37:20;;;;;;;3.28;1.95;;;16.40;99.90;;;;;;5012975;28;20040;-85
2023/09/13 04:39:46;;;;;;;2.30;1.90;;;16.40;99.90;;;;;;5002393;28;20034;-85
2023/09/13 04:42:13;;;;;;;2.65;2.13;;;16.30;99.90;;;;;;4998596;28;20034;-85
2023/09/13 04:44:38;;;;;;;2.03;1.83;;;16.30;99.90;;;;;;4993437;28;20383;-86
2023/09/13 04:47:04;;;;;;;3.55;1.95;;;16.30;99.90;;;;;;5003321;28;20075;-84
2023/09/13 04:49:29;;;;;;;1.90;1.80;;;16.20;99.90;;;;;;5005000;28;20025;-84
2023/09/13 04:51:57;;;;;;;1.95;1.73;;;16.10;99.90;;;;;;5010435;28;20601;-84
2023/09/13 04:54:22;;;;;;;1.63;1.50;;;16.10;99.90;;;;;;4996410;28;20520;-85
2023/09/13 04:56:52;;;;;;;1.98;1.40;;;16.00;99.90;;;;;;5004327;28;20038;-83
2023/09/13 04:59:18;;;;;;;3.08;2.03;;;16.00;99.90;;;;;;5006878;28;20029;-84
2023/09/13 05:01:44;;;;;;;2.45;1.80;;;16.00;99.90;;;;;;5000262;28;20037;-84
2023/09/13 05:04:10;;;;;;;2.22;1.90;;;15.90;99.90;;;;;;5004227;28;20017;-84
2023/09/13 05:06:36;;;;;;;1.88;1.70;;;15.90;99.90;;;;;;4996578;28;20085;-84
2023/09/13 05:09:02;;;;;;;3.38;1.92;;;15.90;99.90;;;;;;4999362;28;20101;-82
2023/09/13 05:11:28;;;;;;;2.08;1.35;;;15.80;99.90;;;;;;5006998;28;20034;-84
2023/09/13 05:14:13;;;;;;;2.53;1.77;;;15.80;99.90;;;;;;4996954;28;20092;-84
2023/09/13 05:16:39;;;;;;;2.08;1.63;;;15.80;99.90;;;;;;4995580;28;20030;-84
2023/09/13 05:19:04;;;;;;;2.58;1.67;;;15.80;99.90;;;;;;5003355;28;20030;-84
2023/09/13 05:21:30;;;;;;;2.63;1.38;;;15.70;99.90;;;;;;5001459;28;20034;-85
2023/09/13 05:23:55;;;;;;;2.25;2.05;;;15.70;99.90;;;;;;4997558;28;20520;-86
2023/09/13 05:26:21;;;;;;;2.25;1.20;;;15.80;99.90;;;;;;5014284;28;20053;-86
2023/09/13 05:28:46;;;;;;;1.70;1.60;;;15.80;99.90;;;;;;5008869;28;20050;-84
2023/09/13 05:31:13;;;;;;;1.65;1.20;;;15.80;99.90;;;;;;5014452;28;20104;-85
2023/09/13 05:33:39;;;;;;;1.13;1.13;;;15.70;99.90;;;;;;5000990;28;20052;-84
2023/09/13 05:36:09;;;;;;;1.65;1.20;;;15.80;99.90;;;;;;5008521;28;20045;-84
2023/09/13 05:38:34;;;;;;;1.45;1.17;;;15.80;99.90;;;;;;5003135;28;20498;-85
2023/09/13 05:41:07;;;;;;;1.52;1.00;;;15.70;99.90;;;;;;5011436;28;20072;-84
2023/09/13 05:43:33;;;;;;;2.22;1.02;;;15.70;99.90;;;;;;5012628;28;20037;-85
2023/09/13 05:45:59;;;;;;;1.17;0.73;;;15.70;99.90;;;;;;5011998;28;20020;-85
2023/09/13 05:48:25;;;;;;;1.13;1.02;;;15.70;99.90;;;;;;5014107;28;20026;-85
2023/09/13 05:50:50;;;;;;;1.13;0.50;;;15.70;99.90;;;;;;5011759;28;20044;-84
2023/09/13 05:53:19;;;;;;;0.60;0.60;;;15.70;99.90;;;;;;5007726;28;20033;-85
2023/09/13 05:55:45;;;;;;;1.35;0.50;;;15.60;99.90;;;;;;5001920;28;20014;-85
2023/09/13 05:58:11;;;;;;;0.65;0.40;;;15.70;99.90;;;;;;5011682;28;20025;-89
2023/09/13 06:00:36;;;;;;;1.55;1.00;;;15.60;99.90;;;;;;5013377;28;20085;-83
2023/09/13 06:03:02;;;;;;;2.13;0.98;;;15.50;99.90;;;;;;5002323;28;20022;-84
2023/09/13 06:05:27;;;;;;;2.22;1.10;;;15.50;99.90;;;;;;5001467;28;20072;-88
2023/09/13 06:07:53;;;;;;;1.30;1.20;;;15.50;99.90;;;;;;5005802;28;20022;-84
2023/09/13 06:10:18;;;;;;;1.98;1.25;;;15.50;99.90;;;;;;5004603;28;20019;-84
2023/09/13 06:12:45;;;;;;;1.45;1.23;;;15.50;99.90;;;;;;5014313;28;20025;-86
2023/09/13 06:15:11;;;;;;;2.13;1.30;;;15.40;99.90;;;;;;4995405;28;20563;-84
2023/09/13 06:17:36;;;;;;;2.20;1.38;;;15.50;99.90;;;;;;5017862;28;20660;-84
2023/09/13 06:20:04;;;;;;;3.45;1.88;;;15.50;99.90;;;;;;5008414;28;20109;-84
2023/09/13 06:22:32;;;;;;;3.88;2.08;;;15.40;99.90;;;;;;5000178;28;20026;-84
2023/09/13 06:24:58;;;;;;;2.58;1.70;;;15.40;99.90;;;;;;5000736;28;20020;-84
2023/09/13 06:27:24;;;;;;;4.20;2.10;;;15.30;99.90;;;;;;4998680;28;20436;-85
2023/09/13 06:29:50;;;;;;;4.65;2.38;;;15.20;99.90;;;;;;5006532;28;20038;-85
2023/09/13 06:32:15;;;;;;;2.92;1.98;;;15.20;99.90;;;;;;5003898;28;20033;-84
2023/09/13 06:34:41;;;;;;;3.03;2.40;;;15.10;99.90;;;;;;5011193;28;20080;-86
2023/09/13 06:37:06;;;;;;;2.47;2.17;;;15.10;99.90;;;;;;5011111;28;20180;-83
2023/09/13 06:39:33;;;;;;;4.57;2.25;;;15.10;99.90;;;;;;4996815;28;20116;-85
2023/09/13 06:41:58;;;;;;;2.83;1.98;;;15.20;99.90;;;;;;5008511;28;20552;-83
2023/09/13 06:44:24;;;;;;;2.22;1.75;;;15.20;99.90;;;;;;5005295;28;20097;-83
2023/09/13 06:46:50;;;;;;;4.25;2.10;;;15.10;99.90;;;;;;4997868;28;20034;-84
2023/09/13 06:49:15;;;;;;;2.45;1.90;;;15.10;99.90;;;;;;5005704;28;20023;-84
2023/09/13 06:51:41;;;;;;;9.70;2.20;;;15.00;99.90;;;;;;5004127;28;20092;-84
2023/09/13 06:54:06;;;;;;;4.95;1.65;;;15.00;99.90;;;;;;5004365;28;20065;-83
2023/09/13 06:56:32;;;;;;;4.93;1.63;;;15.00;99.90;;;;;;5010040;28;20038;-86
2023/09/13 06:58:57;;;;;;;3.53;1.73;;;15.10;99.90;;;;;;5012770;28;20460;-82
2023/09/13 07:01:23;;;;;;;5.68;2.25;;;15.10;99.90;;;;;;5009737;28;20037;-84
2023/09/13 07:03:48;;;;;;;5.78;3.00;;;15.10;99.90;;;;;;5009653;28;20029;-84
2023/09/13 07:06:14;;;;;;;6.63;2.08;;;15.10;99.90;;;;;;5002295;28;20046;-83
2023/09/13 07:08:39;;;;;;;3.83;1.98;;;15.20;99.90;;;;;;5003408;28;20492;-83
2023/09/13 07:11:05;;;;;;;4.43;2.03;;;15.20;99.90;;;;;;5002154;28;20590;-83
2023/09/13 07:13:31;;;;;;;7.55;2.65;;;15.20;99.90;;;;;;5003551;28;20677;-85
2023/09/13 07:15:56;;;;;;;5.28;1.92;;;15.20;99.90;;;;;;5002244;28;20027;-84
2023/09/13 07:18:23;;;;;;;4.35;2.30;;;15.20;99.90;;;;;;5018026;28;20019;-82
2023/09/13 07:20:48;;;;;;;4.32;2.25;;;15.20;99.90;;;;;;5008113;28;20045;-85
2023/09/13 07:23:14;;;;;;;5.75;2.17;;;15.30;99.90;;;;;;5007173;28;20019;-85
2023/09/13 07:25:39;;;;;;;3.20;2.13;;;15.30;99.90;;;;;;5002353;28;20045;-84
2023/09/13 07:28:05;;;;;;;6.13;2.50;;;15.20;99.90;;;;;;5000798;28;20022;-87
2023/09/13 07:30:31;;;;;;;7.88;2.30;;;15.20;99.90;;;;;;5003386;28;20018;-85
2023/09/13 07:32:56;;;;;;;4.85;2.08;;;15.20;99.90;;;;;;5004755;28;20034;-83
2023/09/13 07:35:23;;;;;;;6.82;2.08;;;15.20;99.90;;;;;;5012189;28;20109;-83
2023/09/13 07:37:48;;;;;;;4.35;1.83;;;15.20;99.90;;;;;;4992002;28;20034;-83
2023/09/13 07:40:14;;;;;;;4.15;1.63;;;15.10;99.90;;;;;;4996348;28;20031;-84
2023/09/13 07:42:40;;;;;;;2.42;1.45;;;15.00;99.90;;;;;;4999575;28;20113;-85
2023/09/13 07:45:06;;;;;;;5.13;1.90;;;15.10;99.90;;;;;;5004033;28;20052;-84
2023/09/13 07:47:32;;;;;;;4.82;1.60;;;15.00;99.90;;;;;;5006608;28;20053;-86
2023/09/13 07:49:59;;;;;;;4.97;1.85;;;15.00;99.90;;;;;;4999155;28;20021;-84
2023/09/13 07:52:25;;;;;;;3.28;1.48;;;15.00;99.90;;;;;;5003386;28;20026;-87
2023/09/13 07:54:51;;;;;;;5.60;1.80;;;15.00;99.90;;;;;;5003757;28;20057;-85
2023/09/13 07:57:17;;;;;;;2.30;1.42;;;14.90;99.90;;;;;;4998840;28;20482;-85
2023/09/13 07:59:46;;;;;;;5.93;1.65;;;14.90;99.90;;;;;;5017124;28;20079;-84
2023/09/13 08:02:11;;;;;;;4.60;1.73;;;14.90;99.90;;;;;;5004043;28;20093;-85
2023/09/13 08:04:37;;;;;;;7.65;1.65;;;14.90;99.90;;;;;;5005532;28;20389;-83
2023/09/13 08:07:03;;;;;;;3.97;1.23;;;14.90;99.90;;;;;;4994551;28;20026;-85
2023/09/13 08:09:29;;;;;;;4.00;1.55;;;14.80;99.90;;;;;;5008672;28;20026;-83
2023/09/13 08:11:54;;;;;;;4.53;1.65;;;14.90;99.90;;;;;;5005061;28;20640;-84
2023/09/13 08:14:20;;;;;;;5.90;2.33;;;14.80;99.90;;;;;;5004962;28;20097;-84
2023/09/13 08:16:46;;;;;;;6.88;2.15;;;14.80;99.90;;;;;;5007780;28;20034;-85
2023/09/13 08:19:12;;;;;;;7.40;2.47;;;14.80;99.90;;;;;;4999395;28;20080;-87
2023/09/13 08:21:38;;;;;;;4.07;1.73;;;14.90;99.90;;;;;;5011232;28;20111;-83
2023/09/13 08:24:04;;;;;;;5.05;1.98;;;14.90;99.90;;;;;;5008721;28;20018;-84
2023/09/13 08:26:30;;;;;;;8.77;1.60;;;14.90;99.90;;;;;;5004657;28;20030;-83
2023/09/13 08:28:57;;;;;;;6.63;2.05;;;14.90;99.90;;;;;;4998728;28;20022;-83
2023/09/13 08:31:26;;;;;;;5.47;2.28;;;15.00;99.90;;;;;;5006077;28;20028;-83
2023/09/13 08:33:53;;;;;;;5.45;2.05;;;15.10;99.90;;;;;;5007812;28;20117;-83
2023/09/13 08:36:18;;;;;;;7.20;2.05;;;15.20;99.90;;;;;;4997393;28;20056;-84
2023/09/13 08:38:44;;;;;;;5.85;1.60;;;15.20;99.90;;;;;;5004080;28;20053;-83
2023/09/13 08:41:11;;;;;;;5.93;1.50;;;15.20;99.90;;;;;;4997070;28;20478;-84
2023/09/13 08:43:38;;;;;;;8.77;2.00;;;15.20;99.90;;;;;;5000517;28;20084;-83
2023/09/13 08:46:06;;;;;;;3.58;2.10;;;15.10;99.90;;;;;;5011966;28;20022;-83
2023/09/13 08:48:33;;;;;;;3.38;1.58;;;15.10;99.90;;;;;;4999516;28;20117;-84
2023/09/13 08:51:02;;;;;;;4.60;1.92;;;15.00;99.90;;;;;;5008648;28;20389;-83
2023/09/13 08:53:29;;;;;;;6.05;1.83;;;15.00;99.90;;;;;;5009003;28;20422;-83
2023/09/13 08:55:55;;;;;;;8.45;2.17;;;15.10;99.90;;;;;;4999627;28;20026;-86
2023/09/13 08:58:21;;;;;;;5.50;1.85;;;15.20;99.90;;;;;;5003304;28;20032;-83
2023/09/13 09:00:49;;;;;;;5.97;1.92;;;15.20;99.90;;;;;;5005420;28;20026;-85
2023/09/13 09:03:17;;;;;;;10.25;1.90;;;15.30;99.90;;;;;;5008763;28;20648;-84
2023/09/13 09:05:45;;;;;;;4.05;1.77;;;15.40;99.90;;;;;;5003034;28;20514;-84
2023/09/13 09:08:11;;;;;;;5.03;2.22;;;15.40;99.90;;;;;;5010257;28;20029;-84
2023/09/13 09:10:37;;;;;;;4.90;1.80;;;15.40;99.90;;;;;;5006052;28;20034;-86
2023/09/13 09:13:04;;;;;;;4.55;1.92;;;15.50;99.90;;;;;;4997189;28;20069;-83
2023/09/13 09:15:33;;;;;;;3.80;1.70;;;15.50;99.90;;;;;;5006975;28;20370;-86
2023/09/13 09:18:01;;;;;;;5.07;1.98;;;15.50;99.90;;;;;;4999895;28;20018;-83
2023/09/13 09:20:28;;;;;;;4.40;1.70;;;15.50;99.90;;;;;;5007703;28;20064;-84
2023/09/13 09:22:57;;;;;;;8.45;1.52;;;15.60;99.90;;;;;;5007314;28;20030;-83
2023/09/13 09:25:24;;;;;;;4.25;1.65;;;15.60;99.90;;;;;;5007766;28;20014;-87
2023/09/13 09:27:50;;;;;;;3.95;2.15;;;15.70;99.90;;;;;;4998624;28;20036;-86
2023/09/13 09:30:15;;;;;;;5.03;1.73;;;15.70;99.90;;;;;;5015893;28;20029;-84
2023/09/13 09:32:43;;;;;;;6.32;2.08;;;15.70;99.90;;;;;;4995361;28;20125;-84
2023/09/13 09:35:09;;;;;;;9.68;2.03;;;15.80;99.90;;;;;;5007399;28;20026;-84
2023/09/13 09:37:35;;;;;;;6.85;1.65;;;15.80;99.90;;;;;;5000753;28;20019;-86
2023/09/13 09:40:09;;;;;;;3.72;1.67;;;15.90;99.90;;;;;;5003555;28;20460;-88
2023/09/13 09:42:36;;;;;;;4.80;1.73;;;15.90;99.90;;;;;;4998403;28;20030;-83
2023/09/13 09:45:02;;;;;;;6.63;2.03;;;15.90;99.90;;;;;;4999969;28;20026;-83
2023/09/13 09:47:28;;;;;;;8.88;1.92;;;15.90;99.90;;;;;;5015372;28;20032;-84
2023/09/13 09:49:53;;;;;;;3.28;2.22;;;15.80;99.90;;;;;;5006769;28;20018;-83
2023/09/13 09:52:19;;;;;;;4.82;2.10;;;15.80;99.90;;;;;;5012580;28;20049;-84
2023/09/13 09:54:50;;;;;;;6.38;1.92;;;15.80;99.90;;;;;;5010270;28;20029;-88
2023/09/13 09:57:23;;;;;;;7.68;2.10;;;15.70;99.90;;;;;;5006444;28;20034;-83
2023/09/13 09:59:49;;;;;;;4.80;2.20;;;15.70;99.90;;;;;;5009339;28;20033;-84
2023/09/13 10:02:15;;;;;;;4.85;2.50;;;15.70;99.90;;;;;;5013924;28;20026;-83
2023/09/13 10:04:45;;;;;;;5.95;2.08;;;15.70;99.90;;;;;;5008370;28;20026;-87
2023/09/13 10:07:11;;;;;;;4.78;1.85;;;15.70;99.90;;;;;;4999491;28;20053;-85
2023/09/13 10:09:41;;;;;;;7.68;2.22;;;15.80;99.90;;;;;;5003999;28;20057;-84
2023/09/13 10:12:07;;;;;;;6.93;1.75;;;15.80;99.90;;;;;;5010948;28;20030;-83
2023/09/13 10:14:33;;;;;;;3.53;1.38;;;15.80;99.90;;;;;;5012033;28;20056;-83
2023/09/13 10:17:00;;;;;;;8.43;2.20;;;15.80;99.90;;;;;;5007184;28;20117;-83
2023/09/13 10:19:30;;;;;;;4.97;1.55;;;15.90;99.90;;;;;;5008942;28;20009;-85
2023/09/13 10:21:56;;;;;;;5.10;1.63;;;16.00;99.90;;;;;;5012473;28;20017;-83
2023/09/13 10:24:36;;;;;;;6.80;2.33;;;15.90;99.90;;;;;;5008379;28;20045;-83
2023/09/13 10:27:09;;;;;;;3.83;1.35;;;15.90;99.90;;;;;;5006762;28;20026;-87
2023/09/13 10:29:40;;;;;;;3.67;1.98;;;16.00;99.90;;;;;;5011134;28;20028;-87
2023/09/13 10:32:09;;;;;;;2.83;1.63;;;16.10;99.90;;;;;;5009733;28;20026;-82
2023/09/13 10:34:38;;;;;;;3.75;1.60;;;16.10;99.90;;;;;;5008799;28;20097;-87
2023/09/13 10:37:25;;;;;;;4.78;1.60;;;16.20;99.90;;;;;;5008457;28;20477;-84
2023/09/13 10:40:12;;;;;;;6.38;1.33;;;16.20;99.90;;;;;;5010781;28;20034;-84
2023/09/13 10:42:42;;;;;;;5.63;1.63;;;16.20;99.90;;;;;;5010648;28;20039;-85
2023/09/13 10:45:10;;;;;;;3.55;1.75;;;16.30;99.90;;;;;;5005657;28;20065;-85
2023/09/13 10:47:39;;;;;;;7.22;2.05;;;16.30;99.90;;;;;;5013410;28;20543;-83
2023/09/13 10:50:07;;;;;;;1.45;1.35;;;16.40;99.90;;;;;;5014043;28;20021;-91
2023/09/13 10:52:34;;;;;;;4.03;1.52;;;16.40;99.90;;;;;;5032758;28;20044;-87
2023/09/13 10:55:04;;;;;;;6.50;2.17;;;16.50;99.90;;;;;;5020699;28;20022;-84
2023/09/13 10:57:31;;;;;;;8.35;2.10;;;16.50;99.90;;;;;;5010916;28;20466;-86
2023/09/13 10:59:58;;;;;;;2.15;1.52;;;16.50;99.90;;;;;;5003677;28;20018;-83
2023/09/13 11:02:23;;;;;;;8.18;2.42;;;16.60;99.90;;;;;;5009014;28;20026;-83
2023/09/13 11:04:49;;;;;;;5.88;1.42;;;16.60;99.90;;;;;;5009213;28;20018;-83
2023/09/13 11:07:15;;;;;;;9.38;2.25;;;16.60;99.90;;;;;;5017967;28;20068;-83
2023/09/13 11:09:42;;;;;;;4.07;1.52;;;16.50;99.90;;;;;;5002726;28;20018;-85
2023/09/13 11:12:11;;;;;;;3.00;1.77;;;16.50;99.90;;;;;;5014356;28;20658;-84
2023/09/13 11:14:37;;;;;;;5.18;1.67;;;16.50;99.90;;;;;;5019428;28;20032;-84
2023/09/13 11:17:33;;;;;;;3.30;1.65;;;16.40;99.90;;;;;;5023434;28;20126;-88
2023/09/13 11:20:27;;;;;;;5.75;1.98;;;16.30;99.90;;;;;;5029563;28;20017;-86
2023/09/13 11:23:14;;;;;;;7.15;1.38;;;16.20;99.90;;;;;;5009047;28;20025;-85
2023/09/13 11:26:00;;;;;;;5.93;1.95;;;16.10;99.90;;;;;;5021705;28;20017;-85
2023/09/13 11:28:38;;;;;;;3.63;1.50;;;16.10;99.90;;;;;;5002214;28;20021;-84
2023/09/13 11:31:08;;;;;;;3.85;1.20;;;16.00;99.90;;;;;;5012617;28;20026;-84
2023/09/13 11:33:51;;;;;;;4.00;1.80;;;16.00;99.90;;;;;;5006064;28;20041;-84
2023/09/13 11:36:17;;;;;;;3.10;1.40;;;16.00;99.90;;;;;;5020222;28;20124;-86
2023/09/13 11:38:43;;;;;;;4.68;1.52;;;15.90;99.90;;;;;;5015920;28;20104;-87
2023/09/13 11:41:15;;;;;;;6.97;1.58;;;15.90;99.90;;;;;;5010734;28;20077;-85
2023/09/13 11:43:40;;;;;;;6.05;1.33;;;15.90;99.90;;;;;;5015835;28;20025;-86
2023/09/13 11:46:08;;;;;;;3.28;1.35;;;15.90;99.90;;;;;;5005990;28;20429;-84
2023/09/13 11:48:41;;;;;;;4.03;1.83;;;15.90;99.90;;;;;;5013732;28;20057;-84
2023/09/13 11:51:14;;;;;;;2.60;1.35;;;15.80;99.90;;;;;;5002891;28;20017;-85
2023/09/13 11:53:40;;;;;;;3.75;1.25;;;15.60;99.90;;;;;;5016473;28;20029;-85
2023/09/13 11:56:07;;;;;;;8.18;2.97;;;15.60;99.90;;;;;;5003174;28;20021;-85
2023/09/13 11:58:38;;;;;;;6.80;2.30;;;15.50;99.90;;;;;;5011305;28;20294;-86
2023/09/13 12:01:07;;;;;;;4.47;1.40;;;15.40;99.90;;;;;;5010022;28;20018;-84
2023/09/13 12:03:43;;;;;;;4.43;1.33;;;15.40;99.90;;;;;;5015187;28;20041;-85
2023/09/13 12:06:09;;;;;;;2.15;1.42;;;15.30;99.90;;;;;;5012451;28;20117;-84
2023/09/13 12:08:38;;;;;;;4.18;1.73;;;15.20;99.90;;;;;;5015076;28;20061;-84
2023/09/13 12:11:06;;;;;;;4.15;1.30;;;15.20;99.90;;;;;;5012146;28;20044;-84
2023/09/13 12:13:52;;;;;;;3.45;1.48;;;15.20;99.90;;;;;;5014672;28;20038;-85
2023/09/13 12:16:18;;;;;;;4.75;1.23;;;15.00;99.90;;;;;;5014901;28;20105;-84
2023/09/13 12:18:44;;;;;;;4.68;2.10;;;15.00;99.90;;;;;;5008896;28;20069;-83
2023/09/13 12:21:11;;;;;;;6.45;2.45;;;15.00;99.90;;;;;;5008825;28;20041;-85
2023/09/13 12:23:39;;;;;;;4.47;1.58;;;15.00;99.90;;;;;;5020787;28;20021;-89
2023/09/13 12:26:08;;;;;;;3.13;1.70;;;15.00;99.90;;;;;;5015191;28;20416;-85
2023/09/13 12:28:35;;;;;;;5.95;1.77;;;15.00;99.90;;;;;;5017072;28;20025;-83
2023/09/13 12:31:09;;;;;;;4.50;1.17;;;15.00;99.90;;;;;;5009931;28;20022;-83
2023/09/13 12:33:37;;;;;;;2.78;1.45;;;15.10;99.90;;;;;;5010785;28;20095;-83
2023/09/13 12:36:03;;;;;;;3.70;1.50;;;15.20;99.90;;;;;;5007669;28;20496;-84
2023/09/13 12:38:41;;;;;;;3.38;1.80;;;15.20;99.90;;;;;;5007223;28;20073;-83
2023/09/13 12:41:07;;;;;;;3.25;1.40;;;15.20;99.90;;;;;;5000687;28;20553;-84
2023/09/13 12:43:35;;;;;;;4.20;1.63;;;15.20;99.90;;;;;;5012595;28;20548;-85